Time;durP1;ratioP1;P1;durP2;ratioP2;P2;SDS_P1;SDS_P2;PMS_P1;PMS_P2;Temp;Humidity;BMP_temperature;BMP_pressure;BME280_temperature;BME280_humidity;BME280_pressure;Samples;Min_cycle;Max_cycle;Signal;HPM_P1;HPM_P2
2022/03/04 00:01:37;;;;;;;;;;;153.70;1228.80;;;;;;5091104;28;19926;-64
2022/03/04 00:04:03;;;;;;;;;;;153.60;1228.80;;;;;;5094265;28;19908;-64
2022/03/04 00:06:29;;;;;;;;;;;153.70;1228.80;;;;;;5094350;28;20359;-63
2022/03/04 00:08:54;;;;;;;;;;;153.60;1228.80;;;;;;5092785;28;19932;-63
2022/03/04 00:11:20;;;;;;;;;;;153.60;1228.80;;;;;;5093438;28;19920;-63
2022/03/04 00:13:46;;;;;;;;;;;153.60;1228.80;;;;;;5094908;28;19923;-63
2022/03/04 00:16:11;;;;;;;;;;;128.90;1228.80;;;;;;5093869;28;19950;-63
2022/03/04 00:18:37;;;;;;;;;;;128.90;1228.80;;;;;;5094908;28;19951;-63
2022/03/04 00:21:03;;;;;;;;;;;128.90;1228.80;;;;;;5095018;28;19923;-63
2022/03/04 00:23:28;;;;;;;;;;;128.90;1228.80;;;;;;5094944;28;19908;-63
2022/03/04 00:25:54;;;;;;;;;;;128.80;1254.40;;;;;;5094732;28;20016;-63
2022/03/04 00:28:19;;;;;;;;;;;128.80;1228.80;;;;;;5095392;28;19912;-63
2022/03/04 00:30:45;;;;;;;;;;;128.80;1254.40;;;;;;5094839;28;19951;-63
2022/03/04 00:33:10;;;;;;;;;;;128.70;1228.80;;;;;;5094764;28;20373;-64
2022/03/04 00:35:36;;;;;;;;;;;128.70;1254.40;;;;;;5094487;28;19908;-64
2022/03/04 00:38:02;;;;;;;;;;;128.70;1228.80;;;;;;5094741;28;19944;-64
2022/03/04 00:40:27;;;;;;;;;;;128.60;1228.80;;;;;;5094624;28;20425;-64
2022/03/04 00:42:53;;;;;;;;;;;128.60;1228.80;;;;;;5093956;28;19946;-64
2022/03/04 00:45:18;;;;;;;;;;;128.50;1228.80;;;;;;5094568;28;20003;-64
2022/03/04 00:47:44;;;;;;;;;;;128.50;1228.80;;;;;;5093984;28;20381;-64
2022/03/04 00:50:09;;;;;;;;;;;128.50;1228.80;;;;;;5093868;28;19915;-64
2022/03/04 00:52:35;;;;;;;;;;;128.40;1228.80;;;;;;5094451;28;19916;-64
2022/03/04 00:55:01;;;;;;;;;;;128.40;1254.40;;;;;;5094494;28;20003;-64
2022/03/04 00:57:27;;;;;;;;;;;128.40;1228.80;;;;;;5094445;28;19969;-64
2022/03/04 00:59:52;;;;;;;;;;;128.30;1228.80;;;;;;5094334;28;19908;-64
2022/03/04 01:02:18;;;;;;;;;;;128.20;1228.80;;;;;;5094380;28;19908;-64
2022/03/04 01:04:43;;;;;;;;;;;128.20;1254.40;;;;;;5094463;28;19908;-64
2022/03/04 01:07:09;;;;;;;;;;;128.20;1254.40;;;;;;5094127;28;20405;-64
2022/03/04 01:09:35;;;;;;;;;;;128.10;1254.40;;;;;;5094266;28;19914;-64
2022/03/04 01:12:00;;;;;;;;;;;128.10;1254.40;;;;;;5092792;28;19916;-64
2022/03/04 01:14:26;;;;;;;;;;;128.10;1254.40;;;;;;5094440;28;20002;-64
2022/03/04 01:16:51;;;;;;;;;;;128.10;1254.40;;;;;;5094048;28;20361;-64
2022/03/04 01:19:17;;;;;;;;;;;128.00;1254.40;;;;;;5094269;28;19916;-64
2022/03/04 01:21:43;;;;;;;;;;;128.00;1254.40;;;;;;5098276;28;19908;-64
2022/03/04 01:24:08;;;;;;;;;;;128.00;1254.40;;;;;;5097752;28;20361;-64
2022/03/04 01:26:34;;;;;;;;;;;128.00;1280.00;;;;;;5097682;28;19943;-64
2022/03/04 01:28:59;;;;;;;;;;;128.00;1254.40;;;;;;5098241;28;19916;-64
2022/03/04 01:31:25;;;;;;;;;;;128.00;1280.00;;;;;;5098235;28;19908;-65
2022/03/04 01:33:50;;;;;;;;;;;128.00;1280.00;;;;;;5079948;28;20050;-64
2022/03/04 01:36:16;;;;;;;;;;;128.00;1280.00;;;;;;5098017;28;20353;-64
2022/03/04 01:38:42;;;;;;;;;;;128.00;1280.00;;;;;;5098064;28;19908;-64
2022/03/04 01:41:07;;;;;;;;;;;128.00;1280.00;;;;;;5097954;28;19955;-65
2022/03/04 01:43:35;;;;;;;;;;;128.00;1280.00;;;;;;5097914;28;19954;-64
2022/03/04 01:46:18;;;;;;;;;;;103.30;1254.40;;;;;;5097831;28;19908;-65
2022/03/04 01:48:45;;;;;;;;;;;128.00;1280.00;;;;;;5097989;28;19915;-65
2022/03/04 01:51:11;;;;;;;;;;;128.00;1280.00;;;;;;5097570;28;19915;-64
2022/03/04 01:53:37;;;;;;;;;;;128.00;1280.00;;;;;;5097682;28;19916;-65
2022/03/04 01:56:03;;;;;;;;;;;128.00;1280.00;;;;;;5096287;28;19908;-65
2022/03/04 01:58:28;;;;;;;;;;;128.00;1280.00;;;;;;5096021;28;19909;-65
2022/03/04 02:00:54;;;;;;;;;;;103.30;1254.40;;;;;;5096520;28;19912;-64
2022/03/04 02:03:20;;;;;;;;;;;128.00;1280.00;;;;;;5097685;28;19908;-65
2022/03/04 02:05:45;;;;;;;;;;;128.00;1280.00;;;;;;5097409;28;19965;-64
2022/03/04 02:08:11;;;;;;;;;;;128.00;1280.00;;;;;;5097175;28;19920;-65
2022/03/04 02:10:36;;;;;;;;;;;128.00;1280.00;;;;;;5097395;28;19908;-65
2022/03/04 02:13:03;;;;;;;;;;;128.00;1280.00;;;;;;5097401;28;19955;-65
2022/03/04 02:15:28;;;;;;;;;;;103.30;1254.40;;;;;;5097301;28;19987;-64
2022/03/04 02:17:54;;;;;;;;;;;128.00;1280.00;;;;;;5097600;28;20326;-65
2022/03/04 02:20:20;;;;;;;;;;;103.30;1254.40;;;;;;5097120;28;19909;-64
2022/03/04 02:22:46;;;;;;;;;;;103.30;1280.00;;;;;;5097058;28;19908;-64
2022/03/04 02:25:12;;;;;;;;;;;103.20;1280.00;;;;;;5096488;28;19915;-64
2022/03/04 02:27:37;;;;;;;;;;;103.20;1254.40;;;;;;5096976;28;19926;-64
2022/03/04 02:30:04;;;;;;;;;;;103.20;1254.40;;;;;;5096901;28;20281;-64
2022/03/04 02:32:29;;;;;;;;;;;103.20;1254.40;;;;;;5094970;28;19923;-64
2022/03/04 02:34:55;;;;;;;;;;;103.20;1254.40;;;;;;5096926;28;19908;-64
2022/03/04 02:37:20;;;;;;;;;;;103.20;1254.40;;;;;;5095671;28;19908;-64
2022/03/04 02:39:46;;;;;;;;;;;103.20;1254.40;;;;;;5095483;28;19931;-64
2022/03/04 02:42:11;;;;;;;;;;;103.10;1254.40;;;;;;5096602;28;19934;-64
2022/03/04 02:44:37;;;;;;;;;;;103.10;1254.40;;;;;;5097375;28;19912;-64
2022/03/04 02:47:03;;;;;;;;;;;103.10;1280.00;;;;;;5096869;28;20358;-64
2022/03/04 02:49:29;;;;;;;;;;;103.10;1280.00;;;;;;5096844;28;19923;-64
2022/03/04 02:51:54;;;;;;;;;;;103.00;1280.00;;;;;;5096751;28;19908;-64
2022/03/04 02:54:21;;;;;;;;;;;103.10;1254.40;;;;;;5096514;28;19951;-64
2022/03/04 02:56:46;;;;;;;;;;;103.00;1280.00;;;;;;5096507;28;20399;-64
2022/03/04 02:59:12;;;;;;;;;;;102.90;1280.00;;;;;;5096425;28;19995;-64
2022/03/04 03:01:37;;;;;;;;;;;102.90;1280.00;;;;;;5095085;28;19915;-64
2022/03/04 03:04:03;;;;;;;;;;;102.90;1280.00;;;;;;5096567;28;19908;-64
2022/03/04 03:06:28;;;;;;;;;;;102.90;1280.00;;;;;;5096467;28;20335;-64
2022/03/04 03:08:54;;;;;;;;;;;102.90;1280.00;;;;;;5095941;28;19927;-63
2022/03/04 03:11:20;;;;;;;;;;;102.90;1280.00;;;;;;5096154;28;19931;-63
2022/03/04 03:13:45;;;;;;;;;;;102.80;1280.00;;;;;;5096426;28;20254;-63
2022/03/04 03:16:11;;;;;;;;;;;102.80;1280.00;;;;;;5096414;28;19908;-64
2022/03/04 03:18:36;;;;;;;;;;;102.80;1305.60;;;;;;5096183;28;19909;-64
2022/03/04 03:21:02;;;;;;;;;;;102.80;1280.00;;;;;;5095443;28;20437;-64
2022/03/04 03:23:28;;;;;;;;;;;102.80;1280.00;;;;;;5096137;28;20301;-64
2022/03/04 03:25:53;;;;;;;;;;;102.80;1280.00;;;;;;5096209;28;19912;-64
2022/03/04 03:28:19;;;;;;;;;;;102.80;1280.00;;;;;;5096249;28;19908;-64
2022/03/04 03:30:45;;;;;;;;;;;102.70;1305.60;;;;;;5095954;28;19957;-64
2022/03/04 03:33:10;;;;;;;;;;;102.70;1305.60;;;;;;5095175;28;19986;-64
2022/03/04 03:35:37;;;;;;;;;;;102.70;1305.60;;;;;;5095792;28;19915;-65
2022/03/04 03:38:03;;;;;;;;;;;102.70;1280.00;;;;;;5096072;28;19914;-64
2022/03/04 03:40:28;;;;;;;;;;;102.70;1305.60;;;;;;5095815;28;19987;-64
2022/03/04 03:42:54;;;;;;;;;;;102.70;1305.60;;;;;;5092958;28;19908;-65
2022/03/04 03:45:20;;;;;;;;;;;102.60;1280.00;;;;;;5095807;28;19908;-64
2022/03/04 03:47:45;;;;;;;;;;;102.60;1305.60;;;;;;5095813;28;19908;-63
2022/03/04 03:50:11;;;;;;;;;;;102.60;1305.60;;;;;;5095785;28;20377;-63
2022/03/04 03:52:37;;;;;;;;;;;102.60;1305.60;;;;;;5095642;28;19923;-63
2022/03/04 03:55:03;;;;;;;;;;;102.60;1305.60;;;;;;5095359;28;19908;-63
2022/03/04 03:57:29;;;;;;;;;;;102.60;1305.60;;;;;;5095370;28;19912;-63
2022/03/04 03:59:55;;;;;;;;;;;102.50;1305.60;;;;;;5095352;28;19908;-63
2022/03/04 04:02:20;;;;;;;;;;;102.50;1305.60;;;;;;5095172;28;19911;-65
2022/03/04 04:04:46;;;;;;;;;;;102.50;1331.20;;;;;;5095121;28;19922;-64
2022/03/04 04:07:12;;;;;;;;;;;102.50;1356.80;;;;;;5094885;28;19918;-66
2022/03/04 04:09:39;;;;;;;;;;;102.50;1331.20;;;;;;5095272;28;19916;-66
2022/03/04 04:12:04;;;;;;;;;;;102.40;1305.60;;;;;;5095192;28;19908;-67
2022/03/04 04:14:30;;;;;;;;;;;102.40;1331.20;;;;;;5093171;28;19912;-66
2022/03/04 04:16:56;;;;;;;;;;;102.40;1331.20;;;;;;5095211;28;19933;-66
2022/03/04 04:19:22;;;;;;;;;;;102.40;1305.60;;;;;;5095064;28;20315;-66
2022/03/04 04:21:47;;;;;;;;;;;77.70;1331.20;;;;;;5095004;28;20384;-63
2022/03/04 04:24:13;;;;;;;;;;;77.70;1331.20;;;;;;5094914;28;19944;-67
2022/03/04 04:26:39;;;;;;;;;;;102.40;1382.40;;;;;;5094692;28;19954;-63
2022/03/04 04:29:04;;;;;;;;;;;77.70;1305.60;;;;;;5094615;28;19908;-65
2022/03/04 04:31:32;;;;;;;;;;;77.50;1331.20;;;;;;5094871;28;19923;-63
2022/03/04 04:33:59;;;;;;;;;;;77.40;1305.60;;;;;;5094783;28;19926;-63
2022/03/04 04:36:25;;;;;;;;;;;77.20;1331.20;;;;;;5094594;28;19953;-64
2022/03/04 04:38:51;;;;;;;;;;;77.30;1331.20;;;;;;5094841;28;19912;-63
2022/03/04 04:41:16;;;;;;;;;;;77.20;1331.20;;;;;;5094687;28;20395;-63
2022/03/04 04:43:42;;;;;;;;;;;77.00;1356.80;;;;;;5094586;28;19908;-65
2022/03/04 04:46:07;;;;;;;;;;;77.00;1356.80;;;;;;5094500;28;19919;-67
2022/03/04 04:48:33;;;;;;;;;;;77.10;1408.00;;;;;;5094960;28;19908;-65
2022/03/04 04:50:59;;;;;;;;;;;77.10;1408.00;;;;;;5094180;28;19908;-63
2022/03/04 04:53:25;;;;;;;;;;;77.20;1382.40;;;;;;5094300;28;19923;-64
2022/03/04 04:55:51;;;;;;;;;;;77.30;1382.40;;;;;;5094314;28;19908;-64
2022/03/04 04:58:16;;;;;;;;;;;77.30;1356.80;;;;;;5093030;28;19915;-64
2022/03/04 05:00:42;;;;;;;;;;;77.20;1356.80;;;;;;5094514;28;19908;-64
2022/03/04 05:03:08;;;;;;;;;;;77.20;1382.40;;;;;;5094215;28;19912;-64
2022/03/04 05:05:35;;;;;;;;;;;77.30;1382.40;;;;;;5094274;28;19935;-64
2022/03/04 05:08:00;;;;;;;;;;;77.30;1382.40;;;;;;5094078;28;19920;-64
2022/03/04 05:10:26;;;;;;;;;;;77.30;1356.80;;;;;;5093934;28;19908;-64
2022/03/04 05:12:51;;;;;;;;;;;77.30;1356.80;;;;;;5094346;28;20007;-64
2022/03/04 05:15:17;;;;;;;;;;;77.30;1356.80;;;;;;5094389;28;19912;-63
2022/03/04 05:17:44;;;;;;;;;;;77.30;1356.80;;;;;;5094272;28;19940;-64
2022/03/04 05:20:10;;;;;;;;;;;77.20;1356.80;;;;;;5094044;28;20007;-64
2022/03/04 05:22:36;;;;;;;;;;;77.20;1356.80;;;;;;5094084;28;19951;-64
2022/03/04 05:25:01;;;;;;;;;;;77.20;1382.40;;;;;;5094087;28;19908;-64
2022/03/04 05:27:27;;;;;;;;;;;77.30;1356.80;;;;;;5094072;28;19915;-63
2022/03/04 05:29:53;;;;;;;;;;;77.20;1382.40;;;;;;5094385;28;20293;-63
2022/03/04 05:32:18;;;;;;;;;;;77.20;1382.40;;;;;;5094039;28;19912;-63
2022/03/04 05:34:44;;;;;;;;;;;77.30;1382.40;;;;;;5094161;28;19926;-63
2022/03/04 05:37:09;;;;;;;;;;;77.30;1382.40;;;;;;5093970;28;19915;-64
2022/03/04 05:39:35;;;;;;;;;;;77.20;1382.40;;;;;;5093771;28;19915;-63
2022/03/04 05:42:00;;;;;;;;;;;77.20;1408.00;;;;;;5094044;28;19962;-64
2022/03/04 05:44:26;;;;;;;;;;;77.20;1382.40;;;;;;5094150;28;20270;-64
2022/03/04 05:46:52;;;;;;;;;;;77.20;1408.00;;;;;;5092582;28;19959;-64
2022/03/04 05:49:17;;;;;;;;;;;77.20;1408.00;;;;;;5094091;28;19912;-63
2022/03/04 05:51:43;;;;;;;;;;;77.20;1408.00;;;;;;5093419;28;19991;-63
2022/03/04 05:54:08;;;;;;;;;;;77.30;1408.00;;;;;;5093915;28;19961;-63
2022/03/04 05:56:34;;;;;;;;;;;77.30;1408.00;;;;;;5093738;28;19908;-64
2022/03/04 05:59:00;;;;;;;;;;;77.30;1408.00;;;;;;5093823;28;20002;-63
2022/03/04 06:01:25;;;;;;;;;;;77.30;1433.60;;;;;;5093882;28;19954;-63
2022/03/04 06:03:51;;;;;;;;;;;77.30;1408.00;;;;;;5093549;28;19908;-63
2022/03/04 06:06:16;;;;;;;;;;;77.40;1408.00;;;;;;5095300;28;19908;-64
2022/03/04 06:08:42;;;;;;;;;;;77.40;1433.60;;;;;;5097396;28;19920;-64
2022/03/04 06:11:08;;;;;;;;;;;77.40;1433.60;;;;;;5096006;28;20365;-64
2022/03/04 06:13:34;;;;;;;;;;;77.40;1433.60;;;;;;5097331;28;19986;-64
2022/03/04 06:16:00;;;;;;;;;;;77.50;1433.60;;;;;;5097093;28;19915;-64
2022/03/04 06:18:26;;;;;;;;;;;77.50;1433.60;;;;;;5097106;28;20003;-64
2022/03/04 06:20:52;;;;;;;;;;;77.60;1433.60;;;;;;5097243;28;19939;-64
2022/03/04 06:23:17;;;;;;;;;;;77.60;1459.20;;;;;;5097194;28;19912;-64
2022/03/04 06:25:43;;;;;;;;;;;77.70;1459.20;;;;;;5097089;28;20354;-64
2022/03/04 06:28:09;;;;;;;;;;;77.70;1459.20;;;;;;5096877;28;19908;-64
2022/03/04 06:30:39;;;;;;;;;;;102.40;1459.20;;;;;;5097512;28;19908;-64
2022/03/04 06:35:49;;;;;;;;;;;102.40;1484.80;;;;;;5097229;28;20395;-64
2022/03/04 06:38:17;;;;;;;;;;;102.50;1459.20;;;;;;5096105;28;19908;-64
2022/03/04 06:40:43;;;;;;;;;;;102.60;1459.20;;;;;;5096989;28;19916;-64
2022/03/04 06:43:09;;;;;;;;;;;102.60;1484.80;;;;;;5095653;28;20358;-64
2022/03/04 06:45:36;;;;;;;;;;;102.60;1484.80;;;;;;5096602;28;19940;-64
2022/03/04 06:48:02;;;;;;;;;;;102.60;1484.80;;;;;;5096852;28;19908;-64
2022/03/04 06:50:27;;;;;;;;;;;102.60;1484.80;;;;;;5096627;28;19912;-64
2022/03/04 06:52:53;;;;;;;;;;;102.70;1484.80;;;;;;5096686;28;19916;-67
2022/03/04 06:55:19;;;;;;;;;;;102.70;1510.40;;;;;;5096508;28;20324;-65
2022/03/04 06:57:46;;;;;;;;;;;102.80;1484.80;;;;;;5096641;28;19908;-64
2022/03/04 07:00:12;;;;;;;;;;;102.80;1484.80;;;;;;5096655;28;19944;-64
2022/03/04 07:02:38;;;;;;;;;;;102.80;1484.80;;;;;;5096488;28;20312;-66
2022/03/04 07:05:04;;;;;;;;;;;102.90;1484.80;;;;;;5094935;28;19908;-65
2022/03/04 07:07:30;;;;;;;;;;;102.90;1510.40;;;;;;5096244;28;19943;-65
2022/03/04 07:09:55;;;;;;;;;;;103.00;1484.80;;;;;;5095988;28;20330;-64
2022/03/04 07:12:21;;;;;;;;;;;103.00;1484.80;;;;;;5096354;28;20276;-64
2022/03/04 07:14:47;;;;;;;;;;;103.10;1484.80;;;;;;5095931;28;19962;-63
2022/03/04 07:17:12;;;;;;;;;;;103.10;1484.80;;;;;;5095167;28;19919;-64
2022/03/04 07:19:38;;;;;;;;;;;103.10;1510.40;;;;;;5095376;28;19912;-65
2022/03/04 07:22:04;;;;;;;;;;;103.20;1484.80;;;;;;5095652;28;19909;-64
2022/03/04 07:24:29;;;;;;;;;;;103.20;1510.40;;;;;;5093952;28;19908;-65
2022/03/04 07:26:55;;;;;;;;;;;103.30;1510.40;;;;;;5095798;28;19908;-64
2022/03/04 07:29:20;;;;;;;;;;;103.30;1510.40;;;;;;5093692;28;20289;-63
2022/03/04 07:31:46;;;;;;;;;;;128.00;1561.60;;;;;;5095490;28;20265;-63
2022/03/04 07:34:11;;;;;;;;;;;128.00;1536.00;;;;;;5094892;28;19920;-63
2022/03/04 07:36:37;;;;;;;;;;;128.10;1536.00;;;;;;5095461;28;19919;-72
2022/03/04 07:39:03;;;;;;;;;;;128.20;1536.00;;;;;;5094760;28;19942;-63
2022/03/04 07:41:28;;;;;;;;;;;128.20;1536.00;;;;;;5094405;28;20304;-64
2022/03/04 07:43:54;;;;;;;;;;;128.30;1536.00;;;;;;5094097;28;20281;-64
2022/03/04 07:46:21;;;;;;;;;;;128.60;1945.60;;;;;;5094058;28;19923;-64
2022/03/04 07:48:47;;;;;;;;;;;154.00;2022.40;;;;;;5095014;28;19912;-64
2022/03/04 07:51:13;;;;;;;;;;;179.20;1817.60;;;;;;5094211;28;20295;-64
2022/03/04 07:53:38;;;;;;;;;;;179.30;1510.40;;;;;;5095570;28;19955;-67
2022/03/04 07:56:04;;;;;;;;;;;179.30;1459.20;;;;;;5095296;28;19930;-64
2022/03/04 07:58:29;;;;;;;;;;;179.20;1459.20;;;;;;5095442;28;19908;-65
2022/03/04 08:00:55;;;;;;;;;;;154.50;1484.80;;;;;;5095195;28;19908;-76
2022/03/04 08:03:20;;;;;;;;;;;154.40;1484.80;;;;;;5095257;28;19962;-64
2022/03/04 08:05:46;;;;;;;;;;;154.40;1484.80;;;;;;5095394;28;20342;-71
2022/03/04 08:08:12;;;;;;;;;;;154.40;1484.80;;;;;;5094967;28;19920;-65
2022/03/04 08:10:37;;;;;;;;;;;154.50;1484.80;;;;;;5094185;28;19923;-63
2022/03/04 08:13:03;;;;;;;;;;;154.50;1484.80;;;;;;5092882;28;19923;-66
2022/03/04 08:15:28;;;;;;;;;;;179.20;1484.80;;;;;;5094368;28;19915;-63
2022/03/04 08:17:56;;;;;;;;;;;179.30;1484.80;;;;;;5093987;28;20198;-63
2022/03/04 08:20:22;;;;;;;;;;;179.40;1484.80;;;;;;5094418;28;20308;-64
2022/03/04 08:22:47;;;;;;;;;;;179.50;1484.80;;;;;;5094886;28;19965;-64
2022/03/04 08:25:13;;;;;;;;;;;179.60;1484.80;;;;;;5094714;28;20346;-65
2022/03/04 08:27:39;;;;;;;;;;;179.70;1484.80;;;;;;5094350;28;19958;-62
2022/03/04 08:30:06;;;;;;;;;;;179.90;1536.00;;;;;;5093655;28;19915;-62
2022/03/04 08:32:31;;;;;;;;;;;180.00;1510.40;;;;;;5094345;28;19919;-63
2022/03/04 08:34:59;;;;;;;;;;;180.10;1484.80;;;;;;5094102;28;19908;-62
2022/03/04 08:37:24;;;;;;;;;;;204.80;1484.80;;;;;;5093561;28;20417;-62
2022/03/04 08:39:50;;;;;;;;;;;205.00;1459.20;;;;;;5093247;28;19908;-63
2022/03/04 08:42:15;;;;;;;;;;;205.10;1459.20;;;;;;5093551;28;20353;-63
2022/03/04 08:44:42;;;;;;;;;;;205.20;1459.20;;;;;;5091388;28;19915;-64
2022/03/04 08:47:08;;;;;;;;;;;205.30;1433.60;;;;;;5092955;28;20285;-62
2022/03/04 08:49:34;;;;;;;;;;;205.50;1408.00;;;;;;5091875;28;19961;-62
2022/03/04 08:51:59;;;;;;;;;;;205.60;1408.00;;;;;;5092924;28;19993;-61
2022/03/04 08:54:25;;;;;;;;;;;205.70;1433.60;;;;;;5093278;28;19958;-62
2022/03/04 08:56:51;;;;;;;;;;;230.40;1382.40;;;;;;5092988;28;19908;-61
2022/03/04 08:59:17;;;;;;;;;;;230.50;1382.40;;;;;;5092926;28;19908;-61
2022/03/04 09:01:42;;;;;;;;;;;230.50;1382.40;;;;;;5092883;28;20417;-61
2022/03/04 09:04:08;;;;;;;;;;;230.60;1408.00;;;;;;5092824;28;19921;-62
2022/03/04 09:06:33;;;;;;;;;;;230.70;1382.40;;;;;;5092851;28;19915;-63
2022/03/04 09:09:00;;;;;;;;;;;230.70;1382.40;;;;;;5092642;28;19920;-63
2022/03/04 09:11:25;;;;;;;;;;;230.70;1382.40;;;;;;5093077;28;19952;-62
2022/03/04 09:13:51;;;;;;;;;;;230.80;1382.40;;;;;;5093143;28;20426;-65
2022/03/04 09:16:16;;;;;;;;;;;230.90;1356.80;;;;;;5092640;28;19908;-65
2022/03/04 09:18:42;;;;;;;;;;;230.90;1382.40;;;;;;5092672;28;19912;-66
2022/03/04 09:21:08;;;;;;;;;;;231.10;1408.00;;;;;;5092916;28;20015;-64
2022/03/04 09:23:34;;;;;;;;;;;231.10;1356.80;;;;;;5092763;28;19915;-66
2022/03/04 09:25:59;;;;;;;;;;;231.20;1356.80;;;;;;5092732;28;19961;-67
2022/03/04 09:28:25;;;;;;;;;;;231.30;1356.80;;;;;;5092965;28;19912;-66
2022/03/04 09:30:51;;;;;;;;;;;256.00;1356.80;;;;;;5092701;28;19940;-65
2022/03/04 09:33:16;;;;;;;;;;;256.00;1356.80;;;;;;5093923;28;19916;-64
2022/03/04 09:35:42;;;;;;;;;;;256.00;1356.80;;;;;;5094114;28;19908;-64
2022/03/04 09:38:07;;;;;;;;;;;256.10;1331.20;;;;;;5094300;28;20310;-63
2022/03/04 09:40:33;;;;;;;;;;;256.20;1331.20;;;;;;5094632;28;19908;-67
2022/03/04 09:42:59;;;;;;;;;;;256.20;1331.20;;;;;;5098092;28;19908;-64
2022/03/04 09:45:25;;;;;;;;;;;256.20;1331.20;;;;;;5097057;28;20278;-66
2022/03/04 09:47:51;;;;;;;;;;;256.30;1356.80;;;;;;5097706;28;19908;-64
2022/03/04 09:50:17;;;;;;;;;;;256.40;1331.20;;;;;;5097721;28;19915;-63
2022/03/04 09:52:43;;;;;;;;;;;256.50;1331.20;;;;;;5097728;28;19912;-67
2022/03/04 09:55:09;;;;;;;;;;;256.60;1331.20;;;;;;5097212;28;20407;-64
2022/03/04 09:57:35;;;;;;;;;;;256.60;1356.80;;;;;;5098188;28;19908;-63
2022/03/04 10:00:00;;;;;;;;;;;256.60;1356.80;;;;;;5097577;28;19916;-64
2022/03/04 10:02:26;;;;;;;;;;;256.70;1331.20;;;;;;5097565;28;19962;-66
2022/03/04 10:04:59;;;;;;;;;;;256.80;1331.20;;;;;;5097637;28;19996;-65
2022/03/04 10:07:24;;;;;;;;;;;256.90;1305.60;;;;;;5095896;28;19920;-63
2022/03/04 10:09:50;;;;;;;;;;;256.90;1305.60;;;;;;5097703;28;19919;-65
2022/03/04 10:12:17;;;;;;;;;;;281.60;1331.20;;;;;;5097520;28;19932;-65
2022/03/04 10:15:00;;;;;;;;;;;281.60;1331.20;;;;;;5097396;28;19913;-65
2022/03/04 10:17:26;;;;;;;;;;;281.60;1305.60;;;;;;5097274;28;19931;-64
2022/03/04 10:19:56;;;;;;;;;;;281.60;1331.20;;;;;;5095936;28;20333;-65
2022/03/04 10:22:22;;;;;;;;;;;281.60;1305.60;;;;;;5096268;28;19915;-65
2022/03/04 10:24:48;;;;;;;;;;;256.90;1280.00;;;;;;5097234;28;19912;-64
2022/03/04 10:27:15;;;;;;;;;;;256.90;1280.00;;;;;;5097195;28;19912;-64
2022/03/04 10:29:50;;;;;;;;;;;256.90;1305.60;;;;;;5097156;28;19915;-63
2022/03/04 10:32:18;;;;;;;;;;;256.80;1280.00;;;;;;5096791;28;19908;-64
2022/03/04 10:34:44;;;;;;;;;;;256.80;1305.60;;;;;;5096965;28;19913;-65
2022/03/04 10:37:10;;;;;;;;;;;256.80;1305.60;;;;;;5096943;28;19908;-65
2022/03/04 10:39:36;;;;;;;;;;;256.80;1280.00;;;;;;5096948;28;19908;-65
2022/03/04 10:42:01;;;;;;;;;;;256.80;1254.40;;;;;;5096886;28;19938;-65
2022/03/04 10:44:29;;;;;;;;;;;256.80;1254.40;;;;;;5096484;28;19908;-64
2022/03/04 10:46:58;;;;;;;;;;;256.90;1254.40;;;;;;5096920;28;19951;-65
2022/03/04 10:49:27;;;;;;;;;;;281.60;1280.00;;;;;;5096691;28;20312;-65
2022/03/04 10:52:19;;;;;;;;;;;281.70;1254.40;;;;;;5095731;28;19914;-65
2022/03/04 10:54:51;;;;;;;;;;;281.70;1228.80;;;;;;5095427;28;19919;-65
2022/03/04 10:57:19;;;;;;;;;;;281.80;1228.80;;;;;;5096493;28;19908;-65
2022/03/04 10:59:57;;;;;;;;;;;281.80;1228.80;;;;;;5096510;28;19912;-63
2022/03/04 11:02:43;;;;;;;;;;;281.90;1228.80;;;;;;5096536;28;20006;-64
2022/03/04 11:05:09;;;;;;;;;;;282.00;1254.40;;;;;;5096189;28;19912;-64
2022/03/04 11:07:36;;;;;;;;;;;282.00;1254.40;;;;;;5095674;28;20327;-67
2022/03/04 11:10:02;;;;;;;;;;;282.10;1280.00;;;;;;5096514;28;19908;-63
2022/03/04 11:12:28;;;;;;;;;;;282.10;1280.00;;;;;;5096367;28;19939;-63
2022/03/04 11:14:54;;;;;;;;;;;282.10;1254.40;;;;;;5096405;28;20261;-63
2022/03/04 11:17:21;;;;;;;;;;;282.10;1254.40;;;;;;5094905;28;19909;-65
2022/03/04 11:19:46;;;;;;;;;;;282.10;1228.80;;;;;;5096349;28;19908;-64
2022/03/04 11:22:12;;;;;;;;;;;282.20;1203.20;;;;;;5096036;28;20273;-65
2022/03/04 11:24:39;;;;;;;;;;;282.10;1203.20;;;;;;5096684;28;19915;-64
2022/03/04 11:27:05;;;;;;;;;;;282.20;1203.20;;;;;;5095901;28;19908;-64
2022/03/04 11:29:33;;;;;;;;;;;282.20;1177.60;;;;;;5095889;28;20368;-64
2022/03/04 11:31:58;;;;;;;;;;;282.30;1203.20;;;;;;5096269;28;20006;-63
2022/03/04 11:34:32;;;;;;;;;;;307.20;1305.60;;;;;;5096455;28;20023;-63
2022/03/04 11:37:04;;;;;;;;;;;307.20;1305.60;;;;;;5095815;28;19934;-65
2022/03/04 11:39:30;;;;;;;;;;;282.50;1280.00;;;;;;5095626;28;19912;-63
2022/03/04 11:41:55;;;;;;;;;;;282.50;1305.60;;;;;;5096056;28;19912;-64
2022/03/04 11:44:24;;;;;;;;;;;282.50;1356.80;;;;;;5095671;28;20414;-64
2022/03/04 11:46:54;;;;;;;;;;;282.30;1356.80;;;;;;5095740;28;19962;-64
2022/03/04 11:49:22;;;;;;;;;;;282.20;1408.00;;;;;;5095274;28;19916;-65
2022/03/04 11:52:07;;;;;;;;;;;282.10;1433.60;;;;;;5095303;28;19940;-65
2022/03/04 11:54:32;;;;;;;;;;;281.90;1484.80;;;;;;5095348;28;19916;-63
2022/03/04 11:56:58;;;;;;;;;;;281.80;1484.80;;;;;;5095646;28;19919;-64
2022/03/04 11:59:23;;;;;;;;;;;281.60;1459.20;;;;;;5095256;28;19914;-66
2022/03/04 12:01:49;;;;;;;;;;;256.90;1484.80;;;;;;5095586;28;19912;-64
2022/03/04 12:04:18;;;;;;;;;;;281.80;1612.80;;;;;;5094616;28;19908;-63
2022/03/04 12:07:03;;;;;;;;;;;281.90;1561.60;;;;;;5094886;28;19908;-63
2022/03/04 12:09:30;;;;;;;;;;;281.60;1536.00;;;;;;5095031;28;19920;-63
2022/03/04 12:12:21;;;;;;;;;;;256.90;1510.40;;;;;;5095053;28;19909;-64
2022/03/04 12:14:47;;;;;;;;;;;256.80;1484.80;;;;;;5073623;28;20081;-63
2022/03/04 12:17:13;;;;;;;;;;;256.70;1510.40;;;;;;5076814;28;20375;-64
2022/03/04 12:19:39;;;;;;;;;;;256.60;1510.40;;;;;;5094966;28;19957;-63
2022/03/04 12:22:05;;;;;;;;;;;256.60;1510.40;;;;;;5095023;28;19932;-63
2022/03/04 12:24:32;;;;;;;;;;;256.50;1510.40;;;;;;5094506;28;19908;-64
2022/03/04 12:26:58;;;;;;;;;;;256.30;1510.40;;;;;;5094837;28;20300;-64
2022/03/04 12:29:41;;;;;;;;;;;256.30;1510.40;;;;;;5094901;28;19908;-63
2022/03/04 12:32:06;;;;;;;;;;;256.20;1510.40;;;;;;5094826;28;19930;-63
2022/03/04 12:34:32;;;;;;;;;;;256.10;1484.80;;;;;;5094668;28;20456;-64
2022/03/04 12:37:00;;;;;;;;;;;256.10;1510.40;;;;;;5094600;28;19963;-63
2022/03/04 12:39:25;;;;;;;;;;;256.00;1484.80;;;;;;5094694;28;19943;-63
2022/03/04 12:41:55;;;;;;;;;;;256.00;1510.40;;;;;;5094212;28;19908;-63
2022/03/04 12:44:21;;;;;;;;;;;231.30;1510.40;;;;;;5076573;28;19908;-64
2022/03/04 12:46:47;;;;;;;;;;;231.20;1510.40;;;;;;5094709;28;19914;-63
2022/03/04 12:49:16;;;;;;;;;;;231.20;1561.60;;;;;;5094281;28;19998;-64
2022/03/04 12:51:44;;;;;;;;;;;231.20;1587.20;;;;;;5094436;28;20003;-64
2022/03/04 12:54:17;;;;;;;;;;;231.10;1561.60;;;;;;5074827;28;19916;-64
2022/03/04 12:56:48;;;;;;;;;;;231.10;1638.40;;;;;;5090726;28;19991;-63
2022/03/04 12:59:14;;;;;;;;;;;231.10;1612.80;;;;;;5093290;28;19953;-64
2022/03/04 13:01:43;;;;;;;;;;;231.10;1638.40;;;;;;5093128;28;20357;-63
2022/03/04 13:04:09;;;;;;;;;;;231.10;1638.40;;;;;;5092912;28;19957;-63
2022/03/04 13:06:35;;;;;;;;;;;231.10;1638.40;;;;;;5092505;28;19951;-63
2022/03/04 13:09:04;;;;;;;;;;;231.10;1664.00;;;;;;5089390;28;19924;-63
2022/03/04 13:11:34;;;;;;;;;;;231.10;1664.00;;;;;;5092775;28;19915;-63
2022/03/04 13:14:04;;;;;;;;;;;231.00;1638.40;;;;;;5092559;28;20277;-63
2022/03/04 13:16:39;;;;;;;;;;;231.00;1664.00;;;;;;5099269;28;20273;-64
2022/03/04 13:19:06;;;;;;;;;;;231.00;1664.00;;;;;;5099679;28;19916;-63
2022/03/04 13:21:35;;;;;;;;;;;231.00;1638.40;;;;;;5099364;28;19973;-69
2022/03/04 13:24:06;;;;;;;;;;;231.00;1715.20;;;;;;5092404;28;19908;-64
2022/03/04 13:26:32;;;;;;;;;;;231.00;1715.20;;;;;;5098829;28;20362;-64
2022/03/04 13:28:59;;;;;;;;;;;231.00;1689.60;;;;;;5100300;28;19915;-65
2022/03/04 13:31:26;;;;;;;;;;;231.00;1689.60;;;;;;5099107;28;19912;-65
2022/03/04 13:34:10;;;;;;;;;;;231.00;1689.60;;;;;;5099460;28;20676;-65
2022/03/04 13:36:44;;;;;;;;;;;231.00;1689.60;;;;;;5098386;28;19908;-64
2022/03/04 13:39:11;;;;;;;;;;;231.00;1689.60;;;;;;5099161;28;19962;-65
2022/03/04 13:41:37;;;;;;;;;;;231.00;1689.60;;;;;;5099369;28;20335;-66